LSGM7: Little Sugar Creek nr Pineville 7SW

Data processed at Fri Jun 05 2020 22:55


All information presented herein is the property of the government of the United States of America and may be revised or deleted at any time without prior notice.
Dissemination of this information without the expressed written consent of the Public Affairs Office, Tulsa District U.S. Army Corps of Engineers is strictly prohibited.
These data are gathered electronically and, as presented, have not undergone any form of quality control. These data are not guaranteed to be valid or correct.
Go to home page.
Go to station list.
Go to home page.

Downstream station:


Previous Day
Next Day
Current Day
    
SHEF ID:       LSGM7     Little Sugar Creek near Pinevill
STATION TYPE:  

               PRECIP     STAGE  STAGE(2)  RIV-FLOW   VOLTAGE
                   in        ft        ft       cfs      volt
              Ccp-Rev   Ccp-Rev   Ccp-Rev   Ccp-Rev   Ccp-Rev
(US/Central)
06/05 00:00      0.00      3.82      3.84       329     12.71
06/05 01:00      0.00      3.82      3.83       329     12.71
06/05 02:00      0.00      3.81      3.84       326     12.71
06/05 03:00      0.00      3.81      3.84       326     12.71
06/05 04:00      0.00      3.81      3.83       326     12.71
06/05 05:00      0.00      3.80      3.82       323     12.47
06/05 06:00      ----      3.79      3.82       320     12.47
06/05 07:00      0.00      3.61      3.81       269     12.47
06/05 08:00      0.00      3.78      3.80       317     12.71
06/05 09:00      0.00      3.79      3.81       320     12.71
06/05 10:00      0.00      3.79      3.81       320     12.71
06/05 11:00      0.00      3.78      3.81       317     12.94
06/05 12:00      0.00      3.77      3.81       314     12.94
06/05 13:00      0.00      3.77      3.80       314     12.94
06/05 14:00      0.00      3.75      3.79       308     12.94
06/05 15:00      0.00      3.77      3.80       314     12.94
06/05 16:00      0.00      3.76      3.77       311     12.94
06/05 17:00      0.00      3.83      3.78       332     12.94
06/05 18:00      0.00      3.76      3.77       311     12.94
06/05 19:00      0.00      3.73      3.76       302     12.94
06/05 20:00      0.00      3.74      3.78       305     12.94
06/05 21:00      0.00      3.72      3.75       299     12.71
06/05 22:00      ----      ----      ----      ----      ----
06/05 23:00      ----      ----      ----      ----      ----